Felix — V2GW6 — position and weather

sailwx.info

Track history (hours):
 
Tides and Currents Weather Stations Pressure Air Temp Water Temp Dewpoint Dewpoint Depression Visibility Wind Speed Wind Dir Waves Ship Positions

Felix

Last reported at 2018-Feb-20 18:53 UTC. Time now 2018-Feb-21 03:49 UTC.
Position N 54°01' E 008°06'.

Length 112 m; draft 6.5 m.

Type: Cargo ship. MMSI: 305791000.

Date/timePositionNaut miles runAvg speedWind from/ knotsBaromVisibWave heightAir tempDewpointWater temp
2018-Feb-20 18:53N 54°01' E 008°06'512.0
2018-Feb-20 18:28N 54°00' E 008°14'613.6
2018-Feb-20 18:00N 53°59' E 008°25'714.0
2018-Feb-20 17:30N 53°58' E 008°36'612.5
2018-Feb-20 17:00N 53°53' E 008°43'510.4
2018-Feb-20 16:30N 53°50' E 008°51'510.0
2018-Feb-20 16:00N 53°51' E 008°59'5 9.3
2018-Feb-20 15:30N 53°53' E 009°07'2 3.1
2018-Feb-20 15:00N 53°54' E 009°09'1 2.0
2018-Feb-20 14:30N 53°54' E 009°10'1 1.5
2018-Feb-20 14:00N 53°55' E 009°11'0 0.0
2018-Feb-20 13:27N 53°55' E 009°11'0 0.0
2018-Feb-20 12:57N 53°55' E 009°11'0 0.0
2018-Feb-20 12:30N 53°55' E 009°11'0 0.0
2018-Feb-20 12:00N 53°55' E 009°11'0 0.0
2018-Feb-20 11:27N 53°55' E 009°11'0 0.0
2018-Feb-20 11:00N 53°55' E 009°11'0 0.0
2018-Feb-20 10:27N 53°55' E 009°11'1 3.3
2018-Feb-20 10:00N 53°56' E 009°13'3 5.5
2018-Feb-20 09:30N 53°58' E 009°16'4 8.1
2018-Feb-20 09:00N 54°02' E 009°18'4 7.2
2018-Feb-20 08:29N 54°05' E 009°20'4 7.5
2018-Feb-20 08:00N 54°09' E 009°22'3 6.5
2018-Feb-20 07:30N 54°10' E 009°27'4 8.2
2018-Feb-20 07:00N 54°12' E 009°33'0 0.7
2018-Feb-20 06:30N 54°12' E 009°33'3 5.8
2018-Feb-20 06:00N 54°14' E 009°37'3 6.9
2018-Feb-20 05:30N 54°17' E 009°39'3 6.8
2018-Feb-20 05:00N 54°20' E 009°43'4 8.4
2018-Feb-20 04:30N 54°22' E 009°50'5 7.8
2018-Feb-20 03:51N 54°21' E 009°58'19 4.2
2018-Feb-19 23:23N 54°32' E 010°24'3 7.0
2018-Feb-19 22:54N 54°33' E 010°29'3 8.0
2018-Feb-19 22:30N 54°34' E 010°34'4 7.4
2018-Feb-19 22:00N 54°35' E 010°41'4 7.6
2018-Feb-19 21:30N 54°35' E 010°47'4 8.0
2018-Feb-19 21:00N 54°36' E 010°54'4 8.1
2018-Feb-19 20:30N 54°36' E 011°01'4 7.7
2018-Feb-19 20:00N 54°36' E 011°08'4 7.5
2018-Feb-19 19:30N 54°35' E 011°14'4 7.9
2018-Feb-19 19:00N 54°34' E 011°20'4 8.5
2018-Feb-19 18:30N 54°32' E 011°26'4 8.9
2018-Feb-19 18:00N 54°29' E 011°33'4 8.7
2018-Feb-19 17:30N 54°28' E 011°40'4 8.0
2018-Feb-19 17:00N 54°27' E 011°47'4 8.3
2018-Feb-19 16:30N 54°27' E 011°54'4 8.3
2018-Feb-19 16:00N 54°27' E 012°01'4 8.2
2018-Feb-19 15:30N 54°27' E 012°08'4 7.7
2018-Feb-19 15:00N 54°31' E 012°11'4 8.5
2018-Feb-19 14:30N 54°35' E 012°13'62 8.5
2018-Feb-19 07:13N 55°02' E 013°49'3 9.1
2018-Feb-19 06:51N 55°03' E 013°55'4 9.1
2018-Feb-19 06:23N 55°04' E 014°02'4 8.7
2018-Feb-19 05:53N 55°07' E 014°07'3 8.7
2018-Feb-19 05:30N 55°10' E 014°11'5 8.7
2018-Feb-19 04:55N 55°14' E 014°17'6 9.0
2018-Feb-19 04:16N 55°18' E 014°23'2 8.8
2018-Feb-19 04:00N 55°20' E 014°25'5 8.8
2018-Feb-19 03:26N 55°24' E 014°31'6 8.7
2018-Feb-19 02:41N 55°28' E 014°40'3 9.0
2018-Feb-19 02:22N 55°29' E 014°45'3 8.9
2018-Feb-19 02:00N 55°30' E 014°51'4 9.0
2018-Feb-19 01:30N 55°31' E 014°58'4 9.0
2018-Feb-19 01:00N 55°32' E 015°06'5 9.0
2018-Feb-19 00:30N 55°34' E 015°13'5 9.1
2018-Feb-19 00:00N 55°35' E 015°21'5 9.0
2018-Feb-18 23:30N 55°36' E 015°29'5 9.1
2018-Feb-18 23:00N 55°37' E 015°36'5 9.0
2018-Feb-18 22:30N 55°39' E 015°44'4 9.0
2018-Feb-18 22:00N 55°40' E 015°52'5 9.1
2018-Feb-18 21:30N 55°42' E 015°59'5 9.3
2018-Feb-18 21:00N 55°43' E 016°07'5 9.1
2018-Feb-18 20:30N 55°44' E 016°15'4 8.9
2018-Feb-18 20:00N 55°45' E 016°23'4 8.9
2018-Feb-18 19:30N 55°47' E 016°30'5 9.2
2018-Feb-18 19:00N 55°48' E 016°38'5 9.2
2018-Feb-18 18:30N 55°49' E 016°46'5 8.9
2018-Feb-18 18:00N 55°51' E 016°54'  
2018-Feb-15 14:07N 55°44' E 016°34'110.0
2018-Feb-15 14:00N 55°44' E 016°33'510.1
2018-Feb-15 13:30N 55°43' E 016°24'510.1
2018-Feb-15 13:00N 55°41' E 016°16'510.1
2018-Feb-15 12:30N 55°40' E 016°07'510.1
2018-Feb-15 12:00N 55°38' E 015°58'510.5
2018-Feb-15 11:30N 55°36' E 015°50'510.5
2018-Feb-15 11:00N 55°35' E 015°41'510.2
2018-Feb-15 10:30N 55°33' E 015°32'5 9.6
2018-Feb-15 10:00N 55°32' E 015°24'5 9.7
2018-Feb-15 09:30N 55°30' E 015°16'5 9.9
2018-Feb-15 09:00N 55°29' E 015°08'510.1
2018-Feb-15 08:30N 55°27' E 014°59'510.0
2018-Feb-15 08:00N 55°26' E 014°51'4 8.2
2018-Feb-15 07:30N 55°24' E 014°44'510.3
2018-Feb-15 07:00N 55°21' E 014°37'610.9
2018-Feb-15 06:30N 55°17' E 014°30'511.0
2018-Feb-15 06:00N 55°13' E 014°24'5 9.9
2018-Feb-15 05:30N 55°10' E 014°17'810.9
2018-Feb-15 04:44N 55°10' E 014°02'311.0
2018-Feb-15 04:28N 55°10' E 013°57'610.5
2018-Feb-15 03:56N 55°11' E 013°47'2610.4
2018-Feb-15 01:28N 55°14' E 013°03'510.4
2018-Feb-15 01:00N 55°15' E 012°55'610.4
2018-Feb-15 00:28N 55°16' E 012°45'510.2
2018-Feb-15 00:00N 55°18' E 012°38'5 9.6
2018-Feb-14 23:30N 55°23' E 012°38'510.3
2018-Feb-14 23:00N 55°28' E 012°40'510.4
2018-Feb-14 22:30N 55°33' E 012°42'510.2
2018-Feb-14 22:00N 55°38' E 012°42'510.1
2018-Feb-14 21:30N 55°43' E 012°41'5 9.7
2018-Feb-14 21:00N 55°48' E 012°42'510.3
2018-Feb-14 20:30N 55°53' E 012°39'510.2
2018-Feb-14 20:00N 55°58' E 012°38'510.3
2018-Feb-14 19:30N 56°03' E 012°38'4 8.7
2018-Feb-14 19:00N 56°06' E 012°33'5 9.1
2018-Feb-14 18:30N 56°08' E 012°25'510.5
2018-Feb-14 18:00N 56°09' E 012°16'611.9
2018-Feb-14 17:30N 56°07' E 012°07'611.6
2018-Feb-14 17:00N 56°04' E 011°58'711.2
2018-Feb-14 16:20N 55°57' E 011°50'2 7.4
2018-Feb-14 16:00N 55°55' E 011°51'510.2
2018-Feb-14 15:30N 55°57' E 011°60'1 1.6
2018-Feb-14 15:00N 55°58' E 012°01'0 0.0
2018-Feb-14 14:13N 55°58' E 012°01'0 0.0
2018-Feb-14 13:58N 55°58' E 012°01'0 0.0
2018-Feb-14 13:25N 55°58' E 012°01'0 0.0
2018-Feb-14 12:58N 55°58' E 012°01'0 0.0
2018-Feb-14 12:28N 55°58' E 012°01'0 0.0
2018-Feb-14 11:58N 55°58' E 012°01'0 0.0
2018-Feb-14 11:25N 55°58' E 012°01'0 0.0
2018-Feb-14 10:52N 55°58' E 012°01'0 0.0
2018-Feb-14 10:22N 55°58' E 012°01'0 0.0
2018-Feb-14 09:52N 55°58' E 012°01'0 0.0
2018-Feb-14 09:28N 55°58' E 012°01'0 0.0
2018-Feb-14 08:58N 55°58' E 012°01'0 0.0
2018-Feb-14 08:28N 55°58' E 012°01'0 0.0
2018-Feb-14 07:58N 55°58' E 012°01'0 0.0
2018-Feb-14 07:22N 55°58' E 012°01'0 0.0
2018-Feb-14 06:55N 55°58' E 012°01'0 0.0
2018-Feb-14 06:28N 55°58' E 012°01'0 0.0
2018-Feb-14 05:58N 55°58' E 012°01'0 0.0
2018-Feb-14 05:22N 55°58' E 012°01'0 0.0
2018-Feb-14 04:58N 55°58' E 012°01'0 0.0
2018-Feb-14 04:22N 55°58' E 012°01'0 0.0
2018-Feb-14 03:58N 55°58' E 012°01'0 0.0
2018-Feb-14 03:28N 55°58' E 012°01'0 0.0
2018-Feb-14 02:58N 55°58' E 012°01'0 0.0
2018-Feb-14 02:28N 55°58' E 012°01'0 0.0
2018-Feb-14 01:55N 55°58' E 012°01'0 0.0
2018-Feb-14 01:31N 55°58' E 012°01'0 0.0
2018-Feb-14 00:57N 55°58' E 012°01'0 0.0
2018-Feb-14 00:30N 55°58' E 012°01'0 0.0
2018-Feb-14 00:00N 55°58' E 012°01'0 0.0
2018-Feb-13 23:30N 55°58' E 012°01'0 0.0
2018-Feb-13 22:57N 55°58' E 012°01'0 0.0
2018-Feb-13 22:27N 55°58' E 012°01'0 0.0
2018-Feb-13 22:00N 55°58' E 012°01'0 0.0
2018-Feb-13 21:30N 55°58' E 012°01'0 0.0
2018-Feb-13 20:57N 55°58' E 012°01'0 0.0
2018-Feb-13 20:30N 55°58' E 012°01'0 0.0
2018-Feb-13 19:57N 55°58' E 012°01'0 0.0
2018-Feb-13 19:21N 55°58' E 012°01'0 0.0
2018-Feb-13 18:54N 55°58' E 012°01'0 0.0
2018-Feb-13 18:27N 55°58' E 012°01'0 0.0
2018-Feb-13 18:00N 55°58' E 012°01'0 0.0
2018-Feb-13 17:30N 55°58' E 012°01'0 0.0
2018-Feb-13 16:57N 55°58' E 012°01'0 0.0
2018-Feb-13 16:21N 55°58' E 012°01'0 0.0
2018-Feb-13 15:57N 55°58' E 012°01'0 0.0
2018-Feb-13 15:30N 55°58' E 012°01'0 0.0
2018-Feb-13 14:54N 55°58' E 012°01'0 0.0
2018-Feb-13 14:27N 55°58' E 012°01'0 0.0
2018-Feb-13 13:48N 55°58' E 012°01'0 0.0
2018-Feb-13 13:30N 55°58' E 012°01'0 0.0
2018-Feb-13 13:00N 55°58' E 012°01'0 0.0
2018-Feb-13 12:30N 55°58' E 012°01'0 0.0
2018-Feb-13 12:00N 55°58' E 012°01'0 0.0
2018-Feb-13 11:30N 55°58' E 012°01'0 0.0
2018-Feb-13 11:00N 55°58' E 012°01'0 0.0
2018-Feb-13 10:27N 55°58' E 012°01'0 0.0
2018-Feb-13 10:00N 55°58' E 012°01'0 0.0
2018-Feb-13 09:27N 55°58' E 012°01'0 0.0
2018-Feb-13 09:00N 55°58' E 012°01'0 0.0
2018-Feb-13 08:27N 55°58' E 012°01'0 0.0
2018-Feb-13 08:00N 55°58' E 012°01'0 0.0
2018-Feb-13 07:27N 55°58' E 012°01'0 0.0
2018-Feb-13 06:54N 55°58' E 012°01'0 0.0
2018-Feb-13 06:24N 55°58' E 012°01'0 0.0
2018-Feb-13 06:00N 55°58' E 012°01'0 0.0
2018-Feb-13 05:30N 55°58' E 012°01'0 0.0
2018-Feb-13 05:00N 55°58' E 012°01'0 0.0
2018-Feb-13 04:30N 55°58' E 012°01'0 0.0
2018-Feb-13 03:57N 55°58' E 012°01'0 0.0
2018-Feb-13 03:27N 55°58' E 012°01'0 0.0
2018-Feb-13 02:54N 55°58' E 012°01'0 0.0
2018-Feb-13 02:30N 55°58' E 012°01'0 0.0
2018-Feb-13 02:00N 55°58' E 012°01'0 0.0
2018-Feb-13 01:30N 55°58' E 012°01'0 0.0
2018-Feb-13 00:54N 55°58' E 012°01'0 0.0
2018-Feb-13 00:21N 55°58' E 012°01'0 0.0
2018-Feb-13 00:00N 55°58' E 012°01'0 0.0
2018-Feb-12 23:27N 55°58' E 012°01'0 0.0
2018-Feb-12 22:51N 55°58' E 012°01'0 0.0
2018-Feb-12 22:24N 55°58' E 012°01'0 0.0
2018-Feb-12 21:51N 55°58' E 012°01'0 0.0
2018-Feb-12 21:18N 55°58' E 012°01'0 0.0
2018-Feb-12 20:51N 55°58' E 012°01'0 0.0
2018-Feb-12 20:18N 55°58' E 012°01'0 0.0
2018-Feb-12 20:00N 55°58' E 012°01'0 0.0
2018-Feb-12 19:30N 55°58' E 012°01'0 0.0
2018-Feb-12 18:57N 55°58' E 012°01'0 0.0
2018-Feb-12 18:30N 55°58' E 012°01'0 0.0
2018-Feb-12 17:51N 55°58' E 012°01'0 0.0
2018-Feb-12 17:27N 55°58' E 012°01'0 0.0
2018-Feb-12 16:54N 55°58' E 012°01'0 0.0
2018-Feb-12 16:30N 55°58' E 012°01'0 0.0
2018-Feb-12 16:00N 55°58' E 012°01'0 0.0
2018-Feb-12 15:09N 55°58' E 012°01'0 0.0
2018-Feb-12 15:00N 55°58' E 012°01'0 0.0
2018-Feb-12 14:30N 55°58' E 012°01'0 0.0
2018-Feb-12 13:57N 55°58' E 012°01'0 0.0
2018-Feb-12 13:30N 55°58' E 012°01'0 0.0
2018-Feb-12 12:53N 55°58' E 012°01'0 0.0
2018-Feb-12 12:29N 55°58' E 012°01'0 0.0
2018-Feb-12 11:59N 55°58' E 012°01'0 0.0
2018-Feb-12 11:30N 55°58' E 012°01'0 0.1
2018-Feb-12 11:00N 55°58' E 012°01'3 6.5
2018-Feb-12 10:28N 55°57' E 011°55'3 6.2
2018-Feb-12 10:00N 55°56' E 011°50'2 3.9
2018-Feb-12 09:30N 55°58' E 011°50'3 4.7
2018-Feb-12 08:58N 56°00' E 011°51'73 8.2
2018-Feb-12 00:04N 57°13' E 011°33'1 7.7
2018-Feb-12 00:00N 57°13' E 011°33'4 7.2
2018-Feb-11 23:30N 57°17' E 011°30'4 7.1
2018-Feb-11 23:00N 57°20' E 011°28'3 6.5
2018-Feb-11 22:30N 57°23' E 011°26'4 7.3
2018-Feb-11 22:00N 57°26' E 011°24'4 7.1
2018-Feb-11 21:30N 57°29' E 011°20'4 7.2
2018-Feb-11 21:01N 57°32' E 011°15'4 7.7
2018-Feb-11 20:30N 57°34' E 011°09'4 7.8
2018-Feb-11 20:01N 57°37' E 011°04'4 8.5
2018-Feb-11 19:30N 57°40' E 010°58'4 8.5
2018-Feb-11 19:00N 57°43' E 010°53'4 8.3
2018-Feb-11 18:30N 57°46' E 010°47'4 7.8
2018-Feb-11 18:01N 57°48' E 010°41'5 9.2
2018-Feb-11 17:30N 57°47' E 010°32'510.0
2018-Feb-11 17:00N 57°46' E 010°23'  
Track history (hours):
 
Tides and Currents Weather Stations Pressure Air Temp Water Temp Dewpoint Dewpoint Depression Visibility Wind Speed Wind Dir Waves Ship Positions

Felix

Last reported at 2018-Feb-20 18:53 UTC. Time now 2018-Feb-21 03:49 UTC.
Position N 54°01' E 008°06'.

Length 112 m; draft 6.5 m.

Type: Cargo ship. MMSI: 305791000.

Date/timePositionNaut miles runAvg speedWind from/ knotsBaromVisibWave heightAir tempDewpointWater temp
2018-Feb-20 18:53N 54°01' E 008°06'512.0
2018-Feb-20 18:28N 54°00' E 008°14'613.6
2018-Feb-20 18:00N 53°59' E 008°25'714.0
2018-Feb-20 17:30N 53°58' E 008°36'612.5
2018-Feb-20 17:00N 53°53' E 008°43'510.4
2018-Feb-20 16:30N 53°50' E 008°51'510.0
2018-Feb-20 16:00N 53°51' E 008°59'5 9.3
2018-Feb-20 15:30N 53°53' E 009°07'2 3.1
2018-Feb-20 15:00N 53°54' E 009°09'1 2.0
2018-Feb-20 14:30N 53°54' E 009°10'1 1.5
2018-Feb-20 14:00N 53°55' E 009°11'0 0.0
2018-Feb-20 13:27N 53°55' E 009°11'0 0.0
2018-Feb-20 12:57N 53°55' E 009°11'0 0.0
2018-Feb-20 12:30N 53°55' E 009°11'0 0.0
2018-Feb-20 12:00N 53°55' E 009°11'0 0.0
2018-Feb-20 11:27N 53°55' E 009°11'0 0.0
2018-Feb-20 11:00N 53°55' E 009°11'0 0.0
2018-Feb-20 10:27N 53°55' E 009°11'1 3.3
2018-Feb-20 10:00N 53°56' E 009°13'3 5.5
2018-Feb-20 09:30N 53°58' E 009°16'4 8.1
2018-Feb-20 09:00N 54°02' E 009°18'4 7.2
2018-Feb-20 08:29N 54°05' E 009°20'4 7.5
2018-Feb-20 08:00N 54°09' E 009°22'3 6.5
2018-Feb-20 07:30N 54°10' E 009°27'4 8.2
2018-Feb-20 07:00N 54°12' E 009°33'0 0.7
2018-Feb-20 06:30N 54°12' E 009°33'3 5.8
2018-Feb-20 06:00N 54°14' E 009°37'3 6.9
2018-Feb-20 05:30N 54°17' E 009°39'3 6.8
2018-Feb-20 05:00N 54°20' E 009°43'4 8.4
2018-Feb-20 04:30N 54°22' E 009°50'5 7.8
2018-Feb-20 03:51N 54°21' E 009°58'19 4.2
2018-Feb-19 23:23N 54°32' E 010°24'3 7.0
2018-Feb-19 22:54N 54°33' E 010°29'3 8.0
2018-Feb-19 22:30N 54°34' E 010°34'4 7.4
2018-Feb-19 22:00N 54°35' E 010°41'4 7.6
2018-Feb-19 21:30N 54°35' E 010°47'4 8.0
2018-Feb-19 21:00N 54°36' E 010°54'4 8.1
2018-Feb-19 20:30N 54°36' E 011°01'4 7.7
2018-Feb-19 20:00N 54°36' E 011°08'4 7.5
2018-Feb-19 19:30N 54°35' E 011°14'4 7.9
2018-Feb-19 19:00N 54°34' E 011°20'4 8.5
2018-Feb-19 18:30N 54°32' E 011°26'4 8.9
2018-Feb-19 18:00N 54°29' E 011°33'4 8.7
2018-Feb-19 17:30N 54°28' E 011°40'4 8.0
2018-Feb-19 17:00N 54°27' E 011°47'4 8.3
2018-Feb-19 16:30N 54°27' E 011°54'4 8.3
2018-Feb-19 16:00N 54°27' E 012°01'4 8.2
2018-Feb-19 15:30N 54°27' E 012°08'4 7.7
2018-Feb-19 15:00N 54°31' E 012°11'4 8.5
2018-Feb-19 14:30N 54°35' E 012°13'62 8.5
2018-Feb-19 07:13N 55°02' E 013°49'3 9.1
2018-Feb-19 06:51N 55°03' E 013°55'4 9.1
2018-Feb-19 06:23N 55°04' E 014°02'4 8.7
2018-Feb-19 05:53N 55°07' E 014°07'3 8.7
2018-Feb-19 05:30N 55°10' E 014°11'5 8.7
2018-Feb-19 04:55N 55°14' E 014°17'6 9.0
2018-Feb-19 04:16N 55°18' E 014°23'2 8.8
2018-Feb-19 04:00N 55°20' E 014°25'5 8.8
2018-Feb-19 03:26N 55°24' E 014°31'6 8.7
2018-Feb-19 02:41N 55°28' E 014°40'3 9.0
2018-Feb-19 02:22N 55°29' E 014°45'3 8.9
2018-Feb-19 02:00N 55°30' E 014°51'4 9.0
2018-Feb-19 01:30N 55°31' E 014°58'4 9.0
2018-Feb-19 01:00N 55°32' E 015°06'5 9.0
2018-Feb-19 00:30N 55°34' E 015°13'5 9.1
2018-Feb-19 00:00N 55°35' E 015°21'5 9.0
2018-Feb-18 23:30N 55°36' E 015°29'5 9.1
2018-Feb-18 23:00N 55°37' E 015°36'5 9.0
2018-Feb-18 22:30N 55°39' E 015°44'4 9.0
2018-Feb-18 22:00N 55°40' E 015°52'5 9.1
2018-Feb-18 21:30N 55°42' E 015°59'5 9.3
2018-Feb-18 21:00N 55°43' E 016°07'5 9.1
2018-Feb-18 20:30N 55°44' E 016°15'4 8.9
2018-Feb-18 20:00N 55°45' E 016°23'4 8.9
2018-Feb-18 19:30N 55°47' E 016°30'5 9.2
2018-Feb-18 19:00N 55°48' E 016°38'5 9.2
2018-Feb-18 18:30N 55°49' E 016°46'5 8.9
2018-Feb-18 18:00N 55°51' E 016°54'  
2018-Feb-15 14:07N 55°44' E 016°34'110.0
2018-Feb-15 14:00N 55°44' E 016°33'510.1
2018-Feb-15 13:30N 55°43' E 016°24'510.1
2018-Feb-15 13:00N 55°41' E 016°16'510.1
2018-Feb-15 12:30N 55°40' E 016°07'510.1
2018-Feb-15 12:00N 55°38' E 015°58'510.5
2018-Feb-15 11:30N 55°36' E 015°50'510.5
2018-Feb-15 11:00N 55°35' E 015°41'510.2
2018-Feb-15 10:30N 55°33' E 015°32'5 9.6
2018-Feb-15 10:00N 55°32' E 015°24'5 9.7
2018-Feb-15 09:30N 55°30' E 015°16'5 9.9
2018-Feb-15 09:00N 55°29' E 015°08'510.1
2018-Feb-15 08:30N 55°27' E 014°59'510.0
2018-Feb-15 08:00N 55°26' E 014°51'4 8.2
2018-Feb-15 07:30N 55°24' E 014°44'510.3
2018-Feb-15 07:00N 55°21' E 014°37'610.9
2018-Feb-15 06:30N 55°17' E 014°30'511.0
2018-Feb-15 06:00N 55°13' E 014°24'5 9.9
2018-Feb-15 05:30N 55°10' E 014°17'810.9
2018-Feb-15 04:44N 55°10' E 014°02'311.0
2018-Feb-15 04:28N 55°10' E 013°57'610.5
2018-Feb-15 03:56N 55°11' E 013°47'2610.4
2018-Feb-15 01:28N 55°14' E 013°03'510.4
2018-Feb-15 01:00N 55°15' E 012°55'610.4
2018-Feb-15 00:28N 55°16' E 012°45'510.2
2018-Feb-15 00:00N 55°18' E 012°38'5 9.6
2018-Feb-14 23:30N 55°23' E 012°38'510.3
2018-Feb-14 23:00N 55°28' E 012°40'510.4
2018-Feb-14 22:30N 55°33' E 012°42'510.2
2018-Feb-14 22:00N 55°38' E 012°42'510.1
2018-Feb-14 21:30N 55°43' E 012°41'5 9.7
2018-Feb-14 21:00N 55°48' E 012°42'510.3
2018-Feb-14 20:30N 55°53' E 012°39'510.2
2018-Feb-14 20:00N 55°58' E 012°38'510.3
2018-Feb-14 19:30N 56°03' E 012°38'4 8.7
2018-Feb-14 19:00N 56°06' E 012°33'5 9.1
2018-Feb-14 18:30N 56°08' E 012°25'510.5
2018-Feb-14 18:00N 56°09' E 012°16'611.9
2018-Feb-14 17:30N 56°07' E 012°07'611.6
2018-Feb-14 17:00N 56°04' E 011°58'711.2
2018-Feb-14 16:20N 55°57' E 011°50'2 7.4
2018-Feb-14 16:00N 55°55' E 011°51'510.2
2018-Feb-14 15:30N 55°57' E 011°60'1 1.6
2018-Feb-14 15:00N 55°58' E 012°01'0 0.0
2018-Feb-14 14:13N 55°58' E 012°01'0 0.0
2018-Feb-14 13:58N 55°58' E 012°01'0 0.0
2018-Feb-14 13:25N 55°58' E 012°01'0 0.0
2018-Feb-14 12:58N 55°58' E 012°01'0 0.0
2018-Feb-14 12:28N 55°58' E 012°01'0 0.0
2018-Feb-14 11:58N 55°58' E 012°01'0 0.0
2018-Feb-14 11:25N 55°58' E 012°01'0 0.0
2018-Feb-14 10:52N 55°58' E 012°01'0 0.0
2018-Feb-14 10:22N 55°58' E 012°01'0 0.0
2018-Feb-14 09:52N 55°58' E 012°01'0 0.0
2018-Feb-14 09:28N 55°58' E 012°01'0 0.0
2018-Feb-14 08:58N 55°58' E 012°01'0 0.0
2018-Feb-14 08:28N 55°58' E 012°01'0 0.0
2018-Feb-14 07:58N 55°58' E 012°01'0 0.0
2018-Feb-14 07:22N 55°58' E 012°01'0 0.0
2018-Feb-14 06:55N 55°58' E 012°01'0 0.0
2018-Feb-14 06:28N 55°58' E 012°01'0 0.0
2018-Feb-14 05:58N 55°58' E 012°01'0 0.0
2018-Feb-14 05:22N 55°58' E 012°01'0 0.0
2018-Feb-14 04:58N 55°58' E 012°01'0 0.0
2018-Feb-14 04:22N 55°58' E 012°01'0 0.0
2018-Feb-14 03:58N 55°58' E 012°01'0 0.0
2018-Feb-14 03:28N 55°58' E 012°01'0 0.0
2018-Feb-14 02:58N 55°58' E 012°01'0 0.0
2018-Feb-14 02:28N 55°58' E 012°01'0 0.0
2018-Feb-14 01:55N 55°58' E 012°01'0 0.0
2018-Feb-14 01:31N 55°58' E 012°01'0 0.0
2018-Feb-14 00:57N 55°58' E 012°01'0 0.0
2018-Feb-14 00:30N 55°58' E 012°01'0 0.0
2018-Feb-14 00:00N 55°58' E 012°01'0 0.0
2018-Feb-13 23:30N 55°58' E 012°01'0 0.0
2018-Feb-13 22:57N 55°58' E 012°01'0 0.0
2018-Feb-13 22:27N 55°58' E 012°01'0 0.0
2018-Feb-13 22:00N 55°58' E 012°01'0 0.0
2018-Feb-13 21:30N 55°58' E 012°01'0 0.0
2018-Feb-13 20:57N 55°58' E 012°01'0 0.0
2018-Feb-13 20:30N 55°58' E 012°01'0 0.0
2018-Feb-13 19:57N 55°58' E 012°01'0 0.0
2018-Feb-13 19:21N 55°58' E 012°01'0 0.0
2018-Feb-13 18:54N 55°58' E 012°01'0 0.0
2018-Feb-13 18:27N 55°58' E 012°01'0 0.0
2018-Feb-13 18:00N 55°58' E 012°01'0 0.0
2018-Feb-13 17:30N 55°58' E 012°01'0 0.0
2018-Feb-13 16:57N 55°58' E 012°01'0 0.0
2018-Feb-13 16:21N 55°58' E 012°01'0 0.0
2018-Feb-13 15:57N 55°58' E 012°01'0 0.0
2018-Feb-13 15:30N 55°58' E 012°01'0 0.0
2018-Feb-13 14:54N 55°58' E 012°01'0 0.0
2018-Feb-13 14:27N 55°58' E 012°01'0 0.0
2018-Feb-13 13:48N 55°58' E 012°01'0 0.0
2018-Feb-13 13:30N 55°58' E 012°01'0 0.0
2018-Feb-13 13:00N 55°58' E 012°01'0 0.0
2018-Feb-13 12:30N 55°58' E 012°01'0 0.0
2018-Feb-13 12:00N 55°58' E 012°01'0 0.0
2018-Feb-13 11:30N 55°58' E 012°01'0 0.0
2018-Feb-13 11:00N 55°58' E 012°01'0 0.0
2018-Feb-13 10:27N 55°58' E 012°01'0 0.0
2018-Feb-13 10:00N 55°58' E 012°01'0 0.0
2018-Feb-13 09:27N 55°58' E 012°01'0 0.0
2018-Feb-13 09:00N 55°58' E 012°01'0 0.0
2018-Feb-13 08:27N 55°58' E 012°01'0 0.0
2018-Feb-13 08:00N 55°58' E 012°01'0 0.0
2018-Feb-13 07:27N 55°58' E 012°01'0 0.0
2018-Feb-13 06:54N 55°58' E 012°01'0 0.0
2018-Feb-13 06:24N 55°58' E 012°01'0 0.0
2018-Feb-13 06:00N 55°58' E 012°01'0 0.0
2018-Feb-13 05:30N 55°58' E 012°01'0 0.0
2018-Feb-13 05:00N 55°58' E 012°01'0 0.0
2018-Feb-13 04:30N 55°58' E 012°01'0 0.0
2018-Feb-13 03:57N 55°58' E 012°01'0 0.0
2018-Feb-13 03:27N 55°58' E 012°01'0 0.0
2018-Feb-13 02:54N 55°58' E 012°01'0 0.0
2018-Feb-13 02:30N 55°58' E 012°01'0 0.0
2018-Feb-13 02:00N 55°58' E 012°01'0 0.0
2018-Feb-13 01:30N 55°58' E 012°01'0 0.0
2018-Feb-13 00:54N 55°58' E 012°01'0 0.0
2018-Feb-13 00:21N 55°58' E 012°01'0 0.0
2018-Feb-13 00:00N 55°58' E 012°01'0 0.0
2018-Feb-12 23:27N 55°58' E 012°01'0 0.0
2018-Feb-12 22:51N 55°58' E 012°01'0 0.0
2018-Feb-12 22:24N 55°58' E 012°01'0 0.0
2018-Feb-12 21:51N 55°58' E 012°01'0 0.0
2018-Feb-12 21:18N 55°58' E 012°01'0 0.0
2018-Feb-12 20:51N 55°58' E 012°01'0 0.0
2018-Feb-12 20:18N 55°58' E 012°01'0 0.0
2018-Feb-12 20:00N 55°58' E 012°01'0 0.0
2018-Feb-12 19:30N 55°58' E 012°01'0 0.0
2018-Feb-12 18:57N 55°58' E 012°01'0 0.0
2018-Feb-12 18:30N 55°58' E 012°01'0 0.0
2018-Feb-12 17:51N 55°58' E 012°01'0 0.0
2018-Feb-12 17:27N 55°58' E 012°01'0 0.0
2018-Feb-12 16:54N 55°58' E 012°01'0 0.0
2018-Feb-12 16:30N 55°58' E 012°01'0 0.0
2018-Feb-12 16:00N 55°58' E 012°01'0 0.0
2018-Feb-12 15:09N 55°58' E 012°01'0 0.0
2018-Feb-12 15:00N 55°58' E 012°01'0 0.0
2018-Feb-12 14:30N 55°58' E 012°01'0 0.0
2018-Feb-12 13:57N 55°58' E 012°01'0 0.0
2018-Feb-12 13:30N 55°58' E 012°01'0 0.0
2018-Feb-12 12:53N 55°58' E 012°01'0 0.0
2018-Feb-12 12:29N 55°58' E 012°01'0 0.0
2018-Feb-12 11:59N 55°58' E 012°01'0 0.0
2018-Feb-12 11:30N 55°58' E 012°01'0 0.1
2018-Feb-12 11:00N 55°58' E 012°01'3 6.5
2018-Feb-12 10:28N 55°57' E 011°55'3 6.2
2018-Feb-12 10:00N 55°56' E 011°50'2 3.9
2018-Feb-12 09:30N 55°58' E 011°50'3 4.7
2018-Feb-12 08:58N 56°00' E 011°51'73 8.2
2018-Feb-12 00:04N 57°13' E 011°33'1 7.7
2018-Feb-12 00:00N 57°13' E 011°33'4 7.2
2018-Feb-11 23:30N 57°17' E 011°30'4 7.1
2018-Feb-11 23:00N 57°20' E 011°28'3 6.5
2018-Feb-11 22:30N 57°23' E 011°26'4 7.3
2018-Feb-11 22:00N 57°26' E 011°24'4 7.1
2018-Feb-11 21:30N 57°29' E 011°20'4 7.2
2018-Feb-11 21:01N 57°32' E 011°15'4 7.7
2018-Feb-11 20:30N 57°34' E 011°09'4 7.8
2018-Feb-11 20:01N 57°37' E 011°04'4 8.5
2018-Feb-11 19:30N 57°40' E 010°58'4 8.5
2018-Feb-11 19:00N 57°43' E 010°53'4 8.3
2018-Feb-11 18:30N 57°46' E 010°47'4 7.8
2018-Feb-11 18:01N 57°48' E 010°41'5 9.2
2018-Feb-11 17:30N 57°47' E 010°32'510.0
2018-Feb-11 17:00N 57°46' E 010°23'  

Dump ship's entire track history